createdAt,value
2023-05-08T00:00:37.132Z,222.84
2023-05-08T00:01:37.181Z,221.17
2023-05-08T00:02:37.252Z,224.72
2023-05-08T00:03:37.336Z,223.20
2023-05-08T00:04:37.344Z,222.03
2023-05-08T00:05:37.307Z,224.25
2023-05-08T00:06:37.342Z,222.63
2023-05-08T00:07:37.393Z,223.74
2023-05-08T00:08:37.445Z,224.79
2023-05-08T00:09:37.482Z,222.00
2023-05-08T00:10:37.484Z,220.72
2023-05-08T00:11:37.525Z,223.46
2023-05-08T00:12:37.577Z,224.47
2023-05-08T00:13:37.608Z,224.40
2023-05-08T00:14:37.644Z,221.58
2023-05-08T00:15:37.654Z,222.92
2023-05-08T00:16:37.765Z,223.20
2023-05-08T00:17:37.769Z,223.62
2023-05-08T00:18:37.739Z,223.75
2023-05-08T00:19:37.768Z,221.95
2023-05-08T00:20:37.853Z,225.25
2023-05-08T00:21:37.869Z,223.17
2023-05-08T00:22:37.868Z,223.48
2023-05-08T00:23:37.953Z,226.34
2023-05-08T00:24:37.920Z,223.98
2023-05-08T00:25:37.992Z,224.76
2023-05-08T00:26:37.995Z,223.84
2023-05-08T00:27:38.051Z,223.17
2023-05-08T00:28:38.091Z,223.47
2023-05-08T00:29:38.090Z,224.96
2023-05-08T00:30:38.131Z,226.54
2023-05-08T00:31:38.213Z,223.93
2023-05-08T00:32:38.243Z,223.04
2023-05-08T00:33:38.315Z,222.68
2023-05-08T00:34:38.311Z,223.66
2023-05-08T00:35:38.292Z,222.31
2023-05-08T00:36:38.303Z,225.20
2023-05-08T00:37:38.362Z,225.38
2023-05-08T00:38:38.389Z,225.26
2023-05-08T00:39:38.473Z,222.67
2023-05-08T00:40:38.476Z,224.45
2023-05-08T00:41:38.507Z,223.52
2023-05-08T00:42:38.595Z,225.40
2023-05-08T00:43:38.609Z,222.82
2023-05-08T00:44:38.663Z,224.09
2023-05-08T00:45:38.666Z,226.70
2023-05-08T00:46:38.785Z,227.99
2023-05-08T00:47:38.751Z,222.62
2023-05-08T00:48:38.774Z,225.42
2023-05-08T00:49:38.845Z,225.98
2023-05-08T00:50:38.863Z,226.20
2023-05-08T00:51:38.851Z,224.64
2023-05-08T00:52:38.918Z,227.10
2023-05-08T00:53:38.979Z,224.78
2023-05-08T00:54:38.983Z,225.00
2023-05-08T00:55:39.036Z,224.93
2023-05-08T00:56:39.055Z,222.16
2023-05-08T00:57:39.052Z,225.89
2023-05-08T00:58:39.111Z,224.66
2023-05-08T00:59:39.175Z,223.99
2023-05-08T01:00:39.231Z,227.17
2023-05-08T01:01:39.325Z,225.38
2023-05-08T01:02:39.367Z,224.58
2023-05-08T01:03:39.485Z,223.32
2023-05-08T01:04:39.372Z,225.69
2023-05-08T01:05:39.371Z,223.91
2023-05-08T01:06:39.436Z,223.45
2023-05-08T01:07:39.459Z,226.51
2023-05-08T01:08:39.500Z,225.80
2023-05-08T01:09:39.545Z,225.15
2023-05-08T01:10:39.608Z,225.42
2023-05-08T01:11:39.632Z,225.07
2023-05-08T01:12:39.746Z,225.45
2023-05-08T01:13:39.733Z,226.87
2023-05-08T01:14:39.743Z,226.06
2023-05-08T01:15:39.858Z,223.82
2023-05-08T01:16:39.858Z,226.59
2023-05-08T01:17:39.877Z,224.99
2023-05-08T01:18:39.973Z,225.26
2023-05-08T01:19:39.957Z,225.54
2023-05-08T01:20:40.034Z,225.92
2023-05-08T01:21:40.047Z,224.62
2023-05-08T01:22:40.079Z,227.71
2023-05-08T01:23:40.115Z,227.10
2023-05-08T01:24:40.182Z,225.33
2023-05-08T01:25:40.244Z,226.28
2023-05-08T01:26:40.279Z,226.72
2023-05-08T01:27:40.284Z,222.65
2023-05-08T01:28:40.395Z,225.04
2023-05-08T01:29:40.416Z,227.16
2023-05-08T01:30:40.444Z,225.21
2023-05-08T01:31:40.526Z,224.42
2023-05-08T01:32:40.606Z,224.11
2023-05-08T01:33:40.660Z,224.21
2023-05-08T01:34:40.642Z,224.84
2023-05-08T01:35:40.679Z,226.37
2023-05-08T01:36:40.728Z,224.30
2023-05-08T01:37:40.787Z,225.13
2023-05-08T01:38:40.815Z,225.38
2023-05-08T01:39:40.836Z,226.75
2023-05-08T01:40:40.892Z,224.70
2023-05-08T01:41:41.051Z,225.10
2023-05-08T01:42:41.017Z,227.23
2023-05-08T01:43:41.047Z,225.36
2023-05-08T01:44:41.083Z,224.75
2023-05-08T01:45:41.129Z,225.28
2023-05-08T01:46:41.205Z,226.05
2023-05-08T01:47:41.278Z,223.02
2023-05-08T01:48:41.280Z,225.62
2023-05-08T01:49:41.320Z,225.45
2023-05-08T01:50:41.363Z,222.75
2023-05-08T01:51:41.417Z,222.81
2023-05-08T01:52:41.482Z,220.94
2023-05-08T01:53:41.553Z,226.22
2023-05-08T01:54:41.600Z,224.69
2023-05-08T01:55:41.608Z,225.84
2023-05-08T01:56:41.667Z,224.11
2023-05-08T01:57:41.757Z,225.63
2023-05-08T01:58:41.780Z,224.96
2023-05-08T01:59:41.849Z,225.47
2023-05-08T02:00:41.902Z,225.36
2023-05-08T02:01:41.915Z,226.43
2023-05-08T02:02:42.123Z,225.38
2023-05-08T02:03:42.111Z,228.76
2023-05-08T02:04:42.073Z,225.41
2023-05-08T02:05:42.137Z,224.61
2023-05-08T02:06:42.166Z,230.84
2023-05-08T02:07:42.318Z,224.99
2023-05-08T02:08:42.287Z,226.65
2023-05-08T02:09:42.346Z,225.90
2023-05-08T02:10:42.390Z,226.11
2023-05-08T02:11:42.441Z,224.96
2023-05-08T02:12:42.578Z,225.87
2023-05-08T02:13:42.569Z,226.46
2023-05-08T02:14:42.615Z,226.47
2023-05-08T02:15:42.659Z,228.20
2023-05-08T02:16:42.780Z,225.75
2023-05-08T02:17:42.785Z,227.72
2023-05-08T02:18:42.809Z,224.96
2023-05-08T02:19:42.868Z,229.25
2023-05-08T02:20:42.948Z,226.52
2023-05-08T02:21:42.965Z,227.51
2023-05-08T02:22:43.043Z,226.58
2023-05-08T02:23:43.092Z,226.64
2023-05-08T02:24:43.128Z,226.38
2023-05-08T02:25:43.215Z,225.51
2023-05-08T02:26:43.251Z,225.23
2023-05-08T02:27:43.301Z,228.08
2023-05-08T02:28:43.359Z,227.44
2023-05-08T02:29:43.415Z,228.21
2023-05-08T02:30:43.457Z,229.19
2023-05-08T02:31:43.536Z,227.70
2023-05-08T02:32:43.619Z,225.78
2023-05-08T02:33:43.625Z,225.41
2023-05-08T02:34:51.417Z,228.83
2023-05-08T02:35:44.651Z,228.92
2023-05-08T02:36:43.705Z,228.95
2023-05-08T02:37:43.647Z,230.13
2023-05-08T02:38:43.649Z,229.47
2023-05-08T02:39:43.640Z,228.35
2023-05-08T02:40:43.622Z,229.17
2023-05-08T02:41:43.633Z,228.62
2023-05-08T02:42:43.617Z,225.77
2023-05-08T02:43:43.608Z,228.66
2023-05-08T02:44:43.583Z,228.61
2023-05-08T02:45:43.637Z,227.91
2023-05-08T02:46:43.688Z,229.17
2023-05-08T02:47:43.801Z,227.31
2023-05-08T02:48:43.816Z,229.67
2023-05-08T02:49:43.850Z,228.89
2023-05-08T02:50:43.938Z,227.64
2023-05-08T02:51:43.966Z,225.28
2023-05-08T02:52:44.001Z,228.22
2023-05-08T02:53:44.093Z,227.30
2023-05-08T02:54:44.095Z,228.20
2023-05-08T02:55:44.189Z,227.56
2023-05-08T02:56:44.247Z,228.04
2023-05-08T02:57:44.282Z,225.83
2023-05-08T02:58:44.312Z,226.19
2023-05-08T02:59:44.356Z,227.76
2023-05-08T03:00:44.394Z,226.19
2023-05-08T03:01:44.499Z,226.47
2023-05-08T03:02:44.661Z,227.10
2023-05-08T03:03:44.883Z,226.74
2023-05-08T03:04:44.626Z,229.38
2023-05-08T03:05:44.666Z,227.46
2023-05-08T03:06:44.727Z,223.29
2023-05-08T03:07:44.774Z,228.49
2023-05-08T03:08:44.803Z,228.95
2023-05-08T03:09:44.890Z,228.83
2023-05-08T03:10:44.961Z,229.26
2023-05-08T03:11:44.998Z,226.28
2023-05-08T03:12:45.118Z,225.86
2023-05-08T03:13:45.116Z,227.33
2023-05-08T03:14:45.244Z,229.54
2023-05-08T03:15:45.243Z,228.83
2023-05-08T03:16:45.270Z,227.07
2023-05-08T03:17:45.342Z,228.95
2023-05-08T03:18:45.379Z,228.51
2023-05-08T03:19:45.415Z,224.81
2023-05-08T03:20:45.484Z,227.04
2023-05-08T03:21:45.527Z,228.93
2023-05-08T03:22:45.583Z,227.30
2023-05-08T03:23:45.627Z,226.89
2023-05-08T03:24:45.707Z,228.45
2023-05-08T03:25:45.738Z,227.98
2023-05-08T03:26:45.797Z,224.71
2023-05-08T03:27:45.816Z,227.88
2023-05-08T03:28:45.898Z,228.60
2023-05-08T03:29:45.910Z,228.24
2023-05-08T03:30:45.955Z,228.78
2023-05-08T03:31:46.102Z,226.52
2023-05-08T03:32:46.124Z,225.75
2023-05-08T03:33:46.128Z,229.33
2023-05-08T03:34:46.210Z,227.79
2023-05-08T03:35:46.297Z,228.27
2023-05-08T03:36:46.291Z,229.04
2023-05-08T03:37:46.342Z,227.82
2023-05-08T03:38:46.394Z,229.20
2023-05-08T03:39:46.433Z,231.03
2023-05-08T03:40:46.468Z,229.09
2023-05-08T03:41:46.547Z,229.40
2023-05-08T03:42:46.615Z,229.01
2023-05-08T03:43:46.626Z,227.93
2023-05-08T03:44:46.738Z,226.01
2023-05-08T03:45:46.724Z,227.26
2023-05-08T03:46:46.902Z,229.30
2023-05-08T03:47:47.415Z,230.39
2023-05-08T03:48:46.896Z,228.01
2023-05-08T03:49:46.929Z,229.25
2023-05-08T03:50:46.997Z,227.74
2023-05-08T03:51:47.051Z,228.89
2023-05-08T03:52:47.114Z,226.62
2023-05-08T03:53:47.158Z,228.21
2023-05-08T03:54:47.239Z,227.47
2023-05-08T03:55:47.279Z,227.06
2023-05-08T03:56:47.322Z,228.37
2023-05-08T03:57:47.358Z,228.38
2023-05-08T03:58:47.396Z,227.17
2023-05-08T03:59:47.438Z,229.24
2023-05-08T04:00:47.550Z,229.54
2023-05-08T04:01:47.588Z,228.10
2023-05-08T04:02:47.694Z,228.77
2023-05-08T04:03:47.836Z,231.01
2023-05-08T04:04:47.732Z,227.22
2023-05-08T04:05:47.757Z,226.63
2023-05-08T04:06:50.602Z,219.30
2023-05-08T04:07:47.851Z,216.91
2023-05-08T04:08:47.836Z,210.50
2023-05-08T04:09:47.785Z,204.82
2023-05-08T04:10:47.787Z,197.64
2023-05-08T04:11:47.776Z,193.68
2023-05-08T04:12:47.804Z,188.27
2023-05-08T04:13:47.756Z,181.48
2023-05-08T04:14:47.765Z,178.61
2023-05-08T04:15:47.794Z,178.58
2023-05-08T04:16:47.812Z,175.78
2023-05-08T04:17:47.813Z,172.60
2023-05-08T04:18:47.754Z,166.67
2023-05-08T04:19:47.746Z,162.48
2023-05-08T04:20:47.727Z,156.08
2023-05-08T04:21:47.723Z,155.69
2023-05-08T04:22:47.733Z,146.16
2023-05-08T04:23:47.732Z,147.76
2023-05-08T04:24:47.707Z,145.75
2023-05-08T04:25:47.710Z,136.85
2023-05-08T04:26:47.693Z,135.20
2023-05-08T04:27:47.673Z,135.55
2023-05-08T04:28:47.786Z,137.33
2023-05-08T04:29:47.731Z,128.89
2023-05-08T04:30:47.658Z,125.53
2023-05-08T04:31:47.731Z,124.32
2023-05-08T04:32:47.681Z,127.69
2023-05-08T04:33:47.653Z,124.15
2023-05-08T04:34:47.664Z,127.92
2023-05-08T04:35:47.621Z,127.19
2023-05-08T04:36:47.637Z,127.43
2023-05-08T04:37:47.638Z,124.08
2023-05-08T04:38:47.656Z,123.65
2023-05-08T04:39:48.396Z,124.80
2023-05-08T04:40:47.607Z,128.35
2023-05-08T04:41:47.646Z,123.56
2023-05-08T04:42:47.831Z,123.49
2023-05-08T04:43:47.583Z,129.23
2023-05-08T04:44:47.635Z,125.39
2023-05-08T04:45:47.615Z,127.71
2023-05-08T04:46:47.540Z,123.41
2023-05-08T04:47:47.566Z,125.19
2023-05-08T04:48:47.577Z,126.67
2023-05-08T04:49:47.659Z,127.39
2023-05-08T04:50:47.731Z,132.27
2023-05-08T04:51:47.742Z,133.65
2023-05-08T04:52:47.843Z,131.99
2023-05-08T04:53:47.855Z,130.52
2023-05-08T04:54:47.896Z,130.97
2023-05-08T04:55:48.008Z,132.43
2023-05-08T04:56:48.080Z,129.21
2023-05-08T04:57:48.112Z,132.32
2023-05-08T04:58:48.185Z,132.21
2023-05-08T04:59:48.231Z,130.16
2023-05-08T05:00:48.320Z,132.91
2023-05-08T05:01:48.438Z,133.99
2023-05-08T05:02:48.559Z,129.71
2023-05-08T05:03:48.541Z,133.09
2023-05-08T05:04:48.581Z,132.42
2023-05-08T05:05:48.654Z,131.32
2023-05-08T05:06:48.701Z,129.84
2023-05-08T05:07:48.759Z,129.23
2023-05-08T05:08:48.808Z,127.65
2023-05-08T05:09:48.839Z,127.58
2023-05-08T05:10:48.913Z,130.25
2023-05-08T05:11:48.937Z,130.23
2023-05-08T05:12:49.044Z,127.72
2023-05-08T05:13:49.113Z,126.95
2023-05-08T05:14:49.102Z,125.65
2023-05-08T05:15:49.248Z,129.36
2023-05-08T05:16:49.271Z,127.31
2023-05-08T05:17:49.318Z,127.22
2023-05-08T05:18:49.346Z,127.11
2023-05-08T05:19:50.400Z,122.86
2023-05-08T05:20:49.471Z,124.00
2023-05-08T05:21:49.512Z,124.87
2023-05-08T05:22:49.698Z,127.44
2023-05-08T05:23:49.581Z,125.20
2023-05-08T05:24:49.630Z,124.49
2023-05-08T05:25:49.642Z,126.49
2023-05-08T05:26:49.697Z,123.89
2023-05-08T05:27:49.702Z,126.11
2023-05-08T05:28:49.773Z,125.37
2023-05-08T05:29:49.780Z,125.26
2023-05-08T05:30:49.832Z,124.70
2023-05-08T05:31:49.954Z,123.64
2023-05-08T05:32:49.902Z,122.58
2023-05-08T05:33:49.877Z,125.98
2023-05-08T05:34:49.866Z,126.23
2023-05-08T05:35:49.869Z,124.58
2023-05-08T05:36:50.733Z,124.22
2023-05-08T05:37:49.876Z,124.15
2023-05-08T05:38:49.907Z,117.35
2023-05-08T05:39:49.893Z,113.81
2023-05-08T05:40:49.941Z,114.86
2023-05-08T05:41:49.973Z,113.50
2023-05-08T05:42:49.933Z,114.59
2023-05-08T05:43:50.040Z,111.79
2023-05-08T05:44:50.034Z,117.94
2023-05-08T05:45:50.062Z,122.18
2023-05-08T05:46:50.104Z,123.33
2023-05-08T05:47:50.737Z,125.85
2023-05-08T05:48:50.183Z,128.61
2023-05-08T05:49:50.215Z,139.95
2023-05-08T05:50:50.219Z,144.15
2023-05-08T05:51:50.280Z,149.79
2023-05-08T05:52:50.289Z,156.25
2023-05-08T05:53:50.296Z,158.21
2023-05-08T05:54:50.337Z,160.83
2023-05-08T05:55:50.343Z,162.25
2023-05-08T05:56:50.439Z,169.60
2023-05-08T05:57:50.408Z,171.77
2023-05-08T05:58:50.439Z,174.36
2023-05-08T05:59:50.432Z,178.85
2023-05-08T06:00:50.398Z,179.38
2023-05-08T06:01:50.493Z,183.58
2023-05-08T06:02:50.553Z,186.87
2023-05-08T06:03:50.444Z,193.16
2023-05-08T06:04:50.426Z,194.82
2023-05-08T06:05:50.402Z,197.99
2023-05-08T06:06:50.483Z,202.06
2023-05-08T06:07:50.450Z,207.11
2023-05-08T06:08:50.416Z,209.56
2023-05-08T06:09:50.418Z,213.05
2023-05-08T06:10:50.478Z,212.37
2023-05-08T06:11:50.489Z,214.84
2023-05-08T06:12:50.544Z,220.89
2023-05-08T06:13:50.819Z,219.45
2023-05-08T06:14:50.546Z,221.47
2023-05-08T06:15:50.572Z,225.03
2023-05-08T06:16:50.624Z,226.51
2023-05-08T06:17:50.652Z,235.24
2023-05-08T06:18:50.622Z,234.63
2023-05-08T06:19:50.710Z,238.94
2023-05-08T06:20:50.687Z,239.05
2023-05-08T06:21:50.680Z,238.74
2023-05-08T06:22:50.734Z,235.70
2023-05-08T06:23:50.849Z,245.53
2023-05-08T06:24:50.838Z,245.32
2023-05-08T06:25:50.948Z,245.71
2023-05-08T06:26:50.936Z,245.84
2023-05-08T06:27:51.040Z,245.85
2023-05-08T06:28:51.088Z,245.03
2023-05-08T06:29:51.152Z,242.52
2023-05-08T06:30:51.274Z,247.13
2023-05-08T06:31:51.268Z,246.14
2023-05-08T06:32:51.296Z,246.77
2023-05-08T06:33:52.120Z,247.02
2023-05-08T06:34:52.460Z,248.05
2023-05-08T06:35:51.499Z,249.13
2023-05-08T06:36:51.566Z,245.22
2023-05-08T06:37:51.644Z,247.70
2023-05-08T06:38:51.719Z,243.25
2023-05-08T06:40:03.905Z,246.30
2023-05-08T06:40:52.714Z,246.56
2023-05-08T06:41:51.739Z,247.09
2023-05-08T06:42:51.743Z,246.95
2023-05-08T06:43:51.765Z,247.40
2023-05-08T06:44:51.721Z,246.42
2023-05-08T06:45:51.828Z,243.72
2023-05-08T06:46:51.793Z,240.54
2023-05-08T06:47:51.739Z,236.16
2023-05-08T06:48:51.802Z,237.13
2023-05-08T06:49:51.905Z,238.55
2023-05-08T06:50:51.928Z,235.18
2023-05-08T06:51:51.949Z,240.07
2023-05-08T06:52:52.028Z,234.12
2023-05-08T06:53:52.075Z,238.87
2023-05-08T06:54:52.130Z,238.57
2023-05-08T06:55:52.186Z,239.21
2023-05-08T06:56:52.217Z,242.55
2023-05-08T06:57:52.220Z,246.92
2023-05-08T06:59:04.545Z,244.39
2023-05-08T06:59:53.305Z,244.50
2023-05-08T07:00:52.237Z,245.28
2023-05-08T07:01:52.370Z,246.98
2023-05-08T07:02:52.374Z,247.70
2023-05-08T07:03:52.238Z,253.40
2023-05-08T07:04:52.293Z,244.62
2023-05-08T07:05:52.211Z,243.80
2023-05-08T07:06:52.215Z,245.99
2023-05-08T07:07:52.255Z,245.30
2023-05-08T07:08:52.340Z,245.06
2023-05-08T07:09:52.389Z,247.65
2023-05-08T07:10:52.485Z,246.67
2023-05-08T07:11:52.519Z,250.00
2023-05-08T07:12:52.708Z,246.90
2023-05-08T07:13:52.694Z,247.60
2023-05-08T07:14:52.728Z,250.00
2023-05-08T07:15:52.828Z,247.17
2023-05-08T07:16:52.851Z,243.98
2023-05-08T07:17:52.994Z,245.98
2023-05-08T07:18:52.937Z,250.00
2023-05-08T07:19:52.981Z,245.96
2023-05-08T07:20:53.059Z,249.16
2023-05-08T07:21:53.121Z,246.96
2023-05-08T07:22:53.763Z,249.30
2023-05-08T07:23:53.258Z,249.46
2023-05-08T07:24:53.269Z,245.80
2023-05-08T07:25:53.330Z,244.06
2023-05-08T07:26:53.420Z,242.01
2023-05-08T07:27:53.433Z,249.51
2023-05-08T07:28:53.502Z,243.42
2023-05-08T07:29:53.564Z,236.19
2023-05-08T07:30:53.639Z,234.48
2023-05-08T07:31:53.771Z,231.54
2023-05-08T07:32:53.833Z,213.44
2023-05-08T07:33:53.777Z,202.70
2023-05-08T07:34:53.808Z,199.04
2023-05-08T07:35:53.745Z,186.96
2023-05-08T07:36:53.754Z,178.62
2023-05-08T07:37:53.808Z,177.07
2023-05-08T07:38:53.818Z,179.21
2023-05-08T07:39:53.812Z,181.29
2023-05-08T07:40:53.840Z,182.73
2023-05-08T07:41:53.826Z,187.35
2023-05-08T07:42:53.837Z,186.20
2023-05-08T07:43:53.885Z,185.97
2023-05-08T07:44:55.178Z,189.92
2023-05-08T07:45:53.879Z,185.29
2023-05-08T07:46:53.912Z,184.38
2023-05-08T07:47:53.898Z,184.86
2023-05-08T07:48:53.867Z,184.66
2023-05-08T07:49:53.867Z,180.69
2023-05-08T07:50:53.888Z,181.81
2023-05-08T07:51:53.964Z,177.66
2023-05-08T07:52:53.914Z,180.61
2023-05-08T07:53:53.860Z,179.73
2023-05-08T07:54:53.873Z,180.20
2023-05-08T07:55:53.875Z,181.81
2023-05-08T07:56:53.881Z,179.19
2023-05-08T07:57:53.839Z,178.78
2023-05-08T07:58:53.909Z,173.24
2023-05-08T07:59:53.899Z,178.76
2023-05-08T08:00:53.836Z,175.16
2023-05-08T08:01:54.029Z,176.17
2023-05-08T08:02:54.076Z,173.57
2023-05-08T08:03:53.956Z,175.77
2023-05-08T08:04:53.884Z,171.56
2023-05-08T08:05:53.864Z,175.15
2023-05-08T08:06:53.819Z,173.94
2023-05-08T08:07:53.873Z,179.92
2023-05-08T08:08:53.903Z,171.74
2023-05-08T08:09:53.977Z,173.01
2023-05-08T08:10:53.990Z,175.64
2023-05-08T08:11:54.029Z,172.93
2023-05-08T08:12:54.073Z,169.67
2023-05-08T08:13:54.107Z,169.47
2023-05-08T08:14:54.117Z,171.48
2023-05-08T08:15:54.128Z,170.91
2023-05-08T08:16:54.198Z,167.35
2023-05-08T08:17:54.264Z,171.71
2023-05-08T08:18:54.192Z,174.84
2023-05-08T08:19:54.205Z,173.48
2023-05-08T08:20:54.207Z,175.31
2023-05-08T08:21:54.207Z,177.65
2023-05-08T08:22:54.209Z,170.45
2023-05-08T08:23:54.198Z,168.88
2023-05-08T08:24:55.405Z,172.89
2023-05-08T08:25:54.216Z,175.21
2023-05-08T08:26:54.299Z,175.56
2023-05-08T08:27:54.302Z,178.84
2023-05-08T08:28:54.383Z,176.73
2023-05-08T08:30:01.535Z,173.85
2023-05-08T08:30:55.456Z,174.15
2023-05-08T08:31:54.444Z,174.04
2023-05-08T08:32:54.458Z,172.29
2023-05-08T08:33:54.519Z,171.75
2023-05-08T08:34:54.398Z,177.22
2023-05-08T08:35:54.402Z,177.49
2023-05-08T08:36:54.396Z,170.73
2023-05-08T08:37:54.412Z,168.51
2023-05-08T08:38:54.377Z,157.48
2023-05-08T08:39:54.372Z,151.90
2023-05-08T08:40:54.402Z,145.30
2023-05-08T08:41:54.349Z,170.72
2023-05-08T08:42:54.354Z,177.89
2023-05-08T08:43:54.309Z,171.43
2023-05-08T08:44:54.367Z,178.22
2023-05-08T08:45:54.351Z,191.50
2023-05-08T08:46:54.365Z,215.01
2023-05-08T08:47:54.343Z,254.65
2023-05-08T08:48:54.354Z,242.61
2023-05-08T08:49:54.376Z,224.95
2023-05-08T08:50:54.280Z,241.08
2023-05-08T08:51:54.341Z,226.50
2023-05-08T08:52:54.336Z,208.54
2023-05-08T08:53:54.290Z,208.48
2023-05-08T08:54:54.284Z,206.96
2023-05-08T08:55:54.234Z,227.87
2023-05-08T08:56:54.274Z,210.31
2023-05-08T08:57:54.250Z,198.90
2023-05-08T08:58:54.245Z,196.31
2023-05-08T08:59:54.236Z,195.98
2023-05-08T09:00:54.236Z,194.70
2023-05-08T09:01:54.317Z,191.41
2023-05-08T09:02:54.285Z,197.56
2023-05-08T09:03:54.369Z,203.25
2023-05-08T09:04:54.200Z,195.74
2023-05-08T09:05:54.329Z,193.58
2023-05-08T09:06:54.224Z,192.99
2023-05-08T09:07:54.307Z,202.85
2023-05-08T09:08:54.223Z,208.76
2023-05-08T09:09:54.285Z,195.60
2023-05-08T09:10:54.300Z,198.60
2023-05-08T09:11:54.220Z,196.49
2023-05-08T09:12:54.319Z,194.23
2023-05-08T09:13:54.230Z,195.12
2023-05-08T09:14:56.178Z,187.35
2023-05-08T09:15:54.434Z,186.83
2023-05-08T09:16:54.244Z,202.21
2023-05-08T09:17:54.287Z,211.77
2023-05-08T09:18:54.244Z,210.90
2023-05-08T09:19:54.237Z,199.41
2023-05-08T09:20:54.250Z,195.90
2023-05-08T09:21:54.318Z,180.67
2023-05-08T09:22:54.202Z,182.47
2023-05-08T09:23:54.216Z,180.29
2023-05-08T09:24:54.282Z,176.01
2023-05-08T09:25:54.246Z,174.65
2023-05-08T09:26:54.236Z,179.20
2023-05-08T09:27:54.521Z,178.96
2023-05-08T09:28:54.531Z,172.05
2023-05-08T09:29:54.206Z,157.11
2023-05-08T09:30:54.266Z,162.82
2023-05-08T09:31:54.357Z,170.12
2023-05-08T09:32:54.311Z,165.00
2023-05-08T09:33:54.291Z,154.94
2023-05-08T09:34:54.380Z,139.75
2023-05-08T09:35:54.351Z,133.00
2023-05-08T09:36:54.422Z,135.01
2023-05-08T09:37:57.203Z,151.76
2023-05-08T09:38:54.438Z,155.85
2023-05-08T09:39:54.409Z,163.56
2023-05-08T09:40:54.401Z,171.79
2023-05-08T09:41:54.420Z,178.73
2023-05-08T09:42:54.400Z,181.81
2023-05-08T09:43:54.437Z,182.31
2023-05-08T09:44:54.368Z,182.15
2023-05-08T09:45:54.348Z,185.94
2023-05-08T09:46:54.365Z,189.21
2023-05-08T09:47:54.358Z,192.74
2023-05-08T09:48:54.321Z,191.57
2023-05-08T09:49:54.370Z,196.45
2023-05-08T09:50:54.297Z,196.27
2023-05-08T09:51:54.390Z,195.78
2023-05-08T09:52:54.319Z,196.86
2023-05-08T09:53:54.394Z,190.35
2023-05-08T09:54:54.322Z,202.19
2023-05-08T09:55:55.062Z,201.75
2023-05-08T09:56:54.301Z,205.21
2023-05-08T09:57:54.321Z,210.67
2023-05-08T09:58:54.297Z,216.23
2023-05-08T09:59:54.321Z,213.34
2023-05-08T10:00:54.297Z,218.19
2023-05-08T10:01:54.276Z,218.92
2023-05-08T10:02:54.278Z,213.68
2023-05-08T10:03:54.262Z,217.21
2023-05-08T10:04:54.250Z,217.72
2023-05-08T10:05:54.246Z,223.72
2023-05-08T10:06:56.363Z,222.49
2023-05-08T10:07:54.619Z,226.82
2023-05-08T10:08:54.223Z,230.63
2023-05-08T10:09:54.335Z,235.20
2023-05-08T10:10:54.319Z,235.01
2023-05-08T10:11:54.401Z,231.42
2023-05-08T10:12:54.476Z,239.47
2023-05-08T10:13:54.540Z,233.33
2023-05-08T10:14:55.230Z,238.88
2023-05-08T10:15:54.629Z,240.54
2023-05-08T10:16:54.798Z,247.04
2023-05-08T10:17:54.769Z,247.64
2023-05-08T10:18:54.799Z,245.16
2023-05-08T10:19:54.812Z,247.61
2023-05-08T10:20:54.928Z,248.39
2023-05-08T10:21:54.920Z,245.96
2023-05-08T10:22:55.018Z,249.72
2023-05-08T10:23:55.078Z,245.54
2023-05-08T10:24:55.158Z,248.01
2023-05-08T10:25:55.305Z,244.08
2023-05-08T10:27:05.618Z,241.41
2023-05-08T10:27:56.305Z,241.47
2023-05-08T10:28:55.251Z,241.91
2023-05-08T10:29:55.589Z,244.39
2023-05-08T10:30:55.253Z,244.55
2023-05-08T10:31:55.236Z,245.57
2023-05-08T10:32:55.405Z,240.98
2023-05-08T10:33:55.205Z,242.22
2023-05-08T10:34:55.283Z,238.68
2023-05-08T10:35:55.266Z,238.76
2023-05-08T10:36:55.316Z,236.57
2023-05-08T10:37:55.323Z,236.18
2023-05-08T10:38:55.331Z,232.09
2023-05-08T10:39:55.319Z,219.83
2023-05-08T10:40:55.334Z,212.29
2023-05-08T10:41:55.431Z,212.27
2023-05-08T10:42:55.314Z,210.68
2023-05-08T10:43:55.317Z,202.34
2023-05-08T10:44:55.371Z,202.21
2023-05-08T10:45:55.399Z,194.53
2023-05-08T10:46:55.339Z,189.89
2023-05-08T10:47:55.361Z,189.62
2023-05-08T10:48:55.363Z,190.05
2023-05-08T10:49:55.309Z,187.35
2023-05-08T10:50:55.308Z,187.18
2023-05-08T10:51:55.367Z,182.12
2023-05-08T10:52:55.328Z,175.63
2023-05-08T10:53:55.288Z,174.30
2023-05-08T10:54:55.298Z,173.88
2023-05-08T10:55:55.309Z,169.24
2023-05-08T10:56:55.314Z,169.78
2023-05-08T10:57:55.340Z,163.09
2023-05-08T10:58:55.286Z,164.42
2023-05-08T10:59:55.332Z,161.65
2023-05-08T11:00:55.323Z,156.12
2023-05-08T11:01:55.399Z,155.50
2023-05-08T11:02:55.321Z,157.07
2023-05-08T11:03:55.890Z,155.60
2023-05-08T11:04:55.405Z,150.60
2023-05-08T11:05:55.307Z,147.15
2023-05-08T11:06:55.311Z,159.60
2023-05-08T11:07:55.332Z,162.91
2023-05-08T11:08:55.318Z,159.10
2023-05-08T11:09:55.334Z,164.21
2023-05-08T11:10:55.307Z,163.50
2023-05-08T11:11:55.328Z,170.78
2023-05-08T11:12:55.471Z,170.60
2023-05-08T11:13:55.391Z,176.86
2023-05-08T11:14:55.355Z,176.55
2023-05-08T11:15:55.374Z,175.70
2023-05-08T11:16:55.346Z,178.21
2023-05-08T11:17:55.370Z,176.16
2023-05-08T11:18:55.348Z,177.13
2023-05-08T11:19:55.364Z,175.93
2023-05-08T11:20:55.362Z,173.69
2023-05-08T11:21:55.343Z,170.51
2023-05-08T11:22:55.383Z,165.32
2023-05-08T11:23:55.354Z,165.05
2023-05-08T11:24:55.335Z,166.76
2023-05-08T11:25:55.321Z,165.80
2023-05-08T11:26:55.347Z,166.71
2023-05-08T11:27:55.340Z,167.03
2023-05-08T11:28:55.354Z,168.78
2023-05-08T11:29:55.441Z,166.44
2023-05-08T11:30:55.357Z,169.78
2023-05-08T11:31:55.412Z,170.60
2023-05-08T11:32:55.422Z,167.34
2023-05-08T11:33:55.359Z,169.93
2023-05-08T11:34:55.380Z,170.92
2023-05-08T11:35:55.490Z,176.99
2023-05-08T11:36:55.420Z,172.45
2023-05-08T11:37:55.410Z,172.73
2023-05-08T11:38:56.371Z,172.02
2023-05-08T11:39:55.436Z,177.97
2023-05-08T11:40:55.444Z,177.86
2023-05-08T11:41:55.460Z,175.54
2023-05-08T11:42:55.446Z,184.66
2023-05-08T11:43:55.497Z,186.31
2023-05-08T11:44:55.556Z,178.99
2023-05-08T11:45:55.508Z,181.18
2023-05-08T11:46:55.597Z,184.68
2023-05-08T11:47:55.573Z,183.46
2023-05-08T11:48:55.560Z,178.91
2023-05-08T11:49:55.570Z,178.61
2023-05-08T11:50:55.570Z,182.29
2023-05-08T11:51:55.586Z,178.12
2023-05-08T11:52:55.624Z,179.70
2023-05-08T11:53:55.691Z,180.06
2023-05-08T11:54:55.695Z,182.78
2023-05-08T11:55:55.722Z,180.09
2023-05-08T11:56:55.709Z,178.96
2023-05-08T11:57:55.714Z,181.03
2023-05-08T11:58:55.729Z,180.04
2023-05-08T11:59:55.768Z,181.53
2023-05-08T12:00:55.788Z,178.37
2023-05-08T12:02:07.583Z,180.59
2023-05-08T12:02:56.840Z,180.82
2023-05-08T12:03:55.962Z,181.06
2023-05-08T12:04:55.777Z,180.80
2023-05-08T12:05:55.716Z,177.81
2023-05-08T12:06:55.678Z,179.54
2023-05-08T12:07:55.917Z,177.34
2023-05-08T12:08:55.708Z,177.83
2023-05-08T12:09:55.653Z,176.42
2023-05-08T12:10:55.652Z,176.53
2023-05-08T12:11:55.638Z,176.70
2023-05-08T12:12:55.659Z,173.27
2023-05-08T12:13:55.634Z,174.43
2023-05-08T12:14:55.645Z,175.70
2023-05-08T12:15:55.641Z,170.12
2023-05-08T12:16:55.626Z,168.81
2023-05-08T12:17:55.618Z,166.00
2023-05-08T12:18:55.612Z,170.83
2023-05-08T12:19:55.597Z,170.86
2023-05-08T12:20:55.572Z,165.06
2023-05-08T12:21:55.574Z,164.24
2023-05-08T12:22:55.560Z,161.38
2023-05-08T12:23:55.552Z,162.47
2023-05-08T12:24:55.537Z,164.72
2023-05-08T12:25:55.722Z,161.61
2023-05-08T12:26:55.544Z,158.63
2023-05-08T12:27:55.522Z,153.97
2023-05-08T12:28:55.515Z,154.44